sensor_id;sensor_type;location;lat;lon;timestamp;P1;durP1;ratioP1;P2;durP2;ratioP2
22861;SDS011;11598;50.652;6.172;2023-08-31T00:09:28;17.00;;;5.00;;
22861;SDS011;11598;50.652;6.172;2023-08-31T00:19:31;16.47;;;5.50;;
22861;SDS011;11598;50.652;6.172;2023-08-31T00:29:31;20.65;;;5.13;;
22861;SDS011;11598;50.652;6.172;2023-08-31T00:39:32;11.80;;;4.38;;
22861;SDS011;11598;50.652;6.172;2023-08-31T00:49:33;13.00;;;3.53;;
22861;SDS011;11598;50.652;6.172;2023-08-31T00:59:35;10.25;;;3.17;;
22861;SDS011;11598;50.652;6.172;2023-08-31T01:20:04;12.30;;;5.07;;
22861;SDS011;11598;50.652;6.172;2023-08-31T01:30:06;17.80;;;6.60;;
22861;SDS011;11598;50.652;6.172;2023-08-31T01:40:10;16.15;;;5.72;;
22861;SDS011;11598;50.652;6.172;2023-08-31T01:50:14;10.00;;;5.40;;
22861;SDS011;11598;50.652;6.172;2023-08-31T02:00:16;17.92;;;6.20;;
22861;SDS011;11598;50.652;6.172;2023-08-31T02:10:17;15.73;;;5.97;;
22861;SDS011;11598;50.652;6.172;2023-08-31T02:20:17;11.95;;;6.57;;
22861;SDS011;11598;50.652;6.172;2023-08-31T02:30:21;12.60;;;6.33;;
22861;SDS011;11598;50.652;6.172;2023-08-31T02:40:22;11.43;;;5.47;;
22861;SDS011;11598;50.652;6.172;2023-08-31T02:50:22;9.82;;;5.43;;
22861;SDS011;11598;50.652;6.172;2023-08-31T03:00:22;11.65;;;4.97;;
22861;SDS011;11598;50.652;6.172;2023-08-31T03:10:23;9.18;;;5.15;;
22861;SDS011;11598;50.652;6.172;2023-08-31T03:20:23;9.75;;;4.35;;
22861;SDS011;11598;50.652;6.172;2023-08-31T03:30:25;15.52;;;5.50;;
22861;SDS011;11598;50.652;6.172;2023-08-31T03:40:25;13.00;;;4.93;;
22861;SDS011;11598;50.652;6.172;2023-08-31T03:50:25;15.60;;;5.10;;
22861;SDS011;11598;50.652;6.172;2023-08-31T04:00:26;11.57;;;4.15;;
22861;SDS011;11598;50.652;6.172;2023-08-31T04:10:26;11.00;;;4.00;;
22861;SDS011;11598;50.652;6.172;2023-08-31T04:20:27;7.28;;;3.28;;
22861;SDS011;11598;50.652;6.172;2023-08-31T04:30:27;12.13;;;3.58;;
22861;SDS011;11598;50.652;6.172;2023-08-31T04:40:28;11.63;;;4.05;;
22861;SDS011;11598;50.652;6.172;2023-08-31T04:50:32;16.65;;;4.43;;
22861;SDS011;11598;50.652;6.172;2023-08-31T05:00:32;12.73;;;3.85;;
22861;SDS011;11598;50.652;6.172;2023-08-31T05:10:32;13.38;;;3.10;;
22861;SDS011;11598;50.652;6.172;2023-08-31T05:20:33;17.70;;;3.33;;
22861;SDS011;11598;50.652;6.172;2023-08-31T05:30:33;8.90;;;2.97;;
22861;SDS011;11598;50.652;6.172;2023-08-31T05:40:34;12.90;;;3.13;;
22861;SDS011;11598;50.652;6.172;2023-08-31T05:50:35;8.27;;;2.88;;
22861;SDS011;11598;50.652;6.172;2023-08-31T06:00:36;8.05;;;2.92;;
22861;SDS011;11598;50.652;6.172;2023-08-31T06:10:38;5.82;;;1.98;;
22861;SDS011;11598;50.652;6.172;2023-08-31T06:20:39;8.70;;;2.22;;
22861;SDS011;11598;50.652;6.172;2023-08-31T06:30:40;13.30;;;2.27;;
22861;SDS011;11598;50.652;6.172;2023-08-31T06:40:46;8.73;;;2.00;;
22861;SDS011;11598;50.652;6.172;2023-08-31T06:50:47;7.40;;;2.08;;
22861;SDS011;11598;50.652;6.172;2023-08-31T07:00:47;8.20;;;2.17;;
22861;SDS011;11598;50.652;6.172;2023-08-31T07:10:51;9.57;;;1.80;;
22861;SDS011;11598;50.652;6.172;2023-08-31T07:31:05;9.30;;;1.88;;
22861;SDS011;11598;50.652;6.172;2023-08-31T07:41:06;6.82;;;1.77;;
22861;SDS011;11598;50.652;6.172;2023-08-31T07:51:07;7.13;;;2.10;;
22861;SDS011;11598;50.652;6.172;2023-08-31T08:01:08;13.38;;;2.83;;
22861;SDS011;11598;50.652;6.172;2023-08-31T08:11:08;8.10;;;1.98;;
22861;SDS011;11598;50.652;6.172;2023-08-31T08:21:08;7.40;;;2.83;;
22861;SDS011;11598;50.652;6.172;2023-08-31T08:31:08;7.60;;;2.70;;
22861;SDS011;11598;50.652;6.172;2023-08-31T08:41:09;7.45;;;2.00;;
22861;SDS011;11598;50.652;6.172;2023-08-31T08:51:11;8.20;;;3.20;;
22861;SDS011;11598;50.652;6.172;2023-08-31T09:01:13;12.23;;;2.70;;
22861;SDS011;11598;50.652;6.172;2023-08-31T09:11:23;8.90;;;2.42;;
22861;SDS011;11598;50.652;6.172;2023-08-31T09:21:36;7.93;;;2.80;;
22861;SDS011;11598;50.652;6.172;2023-08-31T09:31:37;10.27;;;2.53;;
22861;SDS011;11598;50.652;6.172;2023-08-31T09:41:52;7.10;;;2.50;;
22861;SDS011;11598;50.652;6.172;2023-08-31T09:51:55;10.05;;;2.72;;
22861;SDS011;11598;50.652;6.172;2023-08-31T10:02:00;10.77;;;2.47;;
22861;SDS011;11598;50.652;6.172;2023-08-31T10:12:02;8.05;;;2.22;;
22861;SDS011;11598;50.652;6.172;2023-08-31T10:22:05;10.37;;;2.80;;
22861;SDS011;11598;50.652;6.172;2023-08-31T10:32:06;12.63;;;2.97;;
22861;SDS011;11598;50.652;6.172;2023-08-31T10:42:06;7.57;;;2.20;;
22861;SDS011;11598;50.652;6.172;2023-08-31T10:52:17;14.00;;;2.33;;
22861;SDS011;11598;50.652;6.172;2023-08-31T11:12:37;6.63;;;2.17;;
22861;SDS011;11598;50.652;6.172;2023-08-31T11:22:42;6.70;;;1.85;;
22861;SDS011;11598;50.652;6.172;2023-08-31T11:32:44;8.80;;;2.05;;
22861;SDS011;11598;50.652;6.172;2023-08-31T11:42:49;8.80;;;1.90;;
22861;SDS011;11598;50.652;6.172;2023-08-31T11:52:52;6.40;;;1.63;;
22861;SDS011;11598;50.652;6.172;2023-08-31T12:02:55;5.47;;;1.67;;
22861;SDS011;11598;50.652;6.172;2023-08-31T12:13:07;6.83;;;1.40;;
22861;SDS011;11598;50.652;6.172;2023-08-31T12:33:11;3.33;;;1.35;;
22861;SDS011;11598;50.652;6.172;2023-08-31T12:43:11;6.68;;;1.63;;
22861;SDS011;11598;50.652;6.172;2023-08-31T12:53:12;3.50;;;1.37;;
22861;SDS011;11598;50.652;6.172;2023-08-31T13:03:12;4.40;;;1.30;;
22861;SDS011;11598;50.652;6.172;2023-08-31T13:13:13;3.97;;;1.20;;
22861;SDS011;11598;50.652;6.172;2023-08-31T13:23:13;6.53;;;1.35;;
22861;SDS011;11598;50.652;6.172;2023-08-31T13:33:13;6.38;;;1.40;;
22861;SDS011;11598;50.652;6.172;2023-08-31T13:43:14;5.43;;;1.20;;
22861;SDS011;11598;50.652;6.172;2023-08-31T13:53:15;5.05;;;1.27;;
22861;SDS011;11598;50.652;6.172;2023-08-31T14:03:15;5.03;;;1.23;;
22861;SDS011;11598;50.652;6.172;2023-08-31T14:13:17;7.68;;;1.45;;
22861;SDS011;11598;50.652;6.172;2023-08-31T14:23:17;4.00;;;1.40;;
22861;SDS011;11598;50.652;6.172;2023-08-31T14:33:17;5.35;;;1.55;;
22861;SDS011;11598;50.652;6.172;2023-08-31T14:43:18;7.80;;;1.95;;
22861;SDS011;11598;50.652;6.172;2023-08-31T14:53:18;8.27;;;2.17;;
22861;SDS011;11598;50.652;6.172;2023-08-31T15:03:18;8.15;;;1.70;;
22861;SDS011;11598;50.652;6.172;2023-08-31T15:13:20;5.53;;;1.40;;
22861;SDS011;11598;50.652;6.172;2023-08-31T15:23:21;6.15;;;1.50;;
22861;SDS011;11598;50.652;6.172;2023-08-31T15:33:21;6.57;;;1.75;;
22861;SDS011;11598;50.652;6.172;2023-08-31T15:43:21;7.97;;;1.70;;
22861;SDS011;11598;50.652;6.172;2023-08-31T15:53:22;5.95;;;1.65;;
22861;SDS011;11598;50.652;6.172;2023-08-31T16:03:22;9.97;;;2.00;;
22861;SDS011;11598;50.652;6.172;2023-08-31T16:13:23;8.82;;;1.88;;
22861;SDS011;11598;50.652;6.172;2023-08-31T16:23:23;7.82;;;2.05;;
22861;SDS011;11598;50.652;6.172;2023-08-31T16:33:23;7.88;;;2.08;;
22861;SDS011;11598;50.652;6.172;2023-08-31T16:43:25;5.88;;;2.00;;
22861;SDS011;11598;50.652;6.172;2023-08-31T16:53:25;6.22;;;1.70;;
22861;SDS011;11598;50.652;6.172;2023-08-31T17:03:25;6.70;;;1.88;;
22861;SDS011;11598;50.652;6.172;2023-08-31T17:13:26;9.27;;;2.10;;
22861;SDS011;11598;50.652;6.172;2023-08-31T17:23:26;9.95;;;2.20;;
22861;SDS011;11598;50.652;6.172;2023-08-31T17:33:26;8.80;;;2.00;;
22861;SDS011;11598;50.652;6.172;2023-08-31T17:43:28;4.15;;;1.42;;
22861;SDS011;11598;50.652;6.172;2023-08-31T17:53:29;8.90;;;2.90;;
22861;SDS011;11598;50.652;6.172;2023-08-31T18:03:29;7.40;;;1.83;;
22861;SDS011;11598;50.652;6.172;2023-08-31T18:13:29;8.90;;;1.95;;
22861;SDS011;11598;50.652;6.172;2023-08-31T18:23:30;8.65;;;2.10;;
22861;SDS011;11598;50.652;6.172;2023-08-31T18:33:30;6.50;;;1.58;;
22861;SDS011;11598;50.652;6.172;2023-08-31T18:43:31;6.30;;;1.92;;
22861;SDS011;11598;50.652;6.172;2023-08-31T18:53:31;11.25;;;2.38;;
22861;SDS011;11598;50.652;6.172;2023-08-31T19:03:32;12.25;;;2.45;;
22861;SDS011;11598;50.652;6.172;2023-08-31T19:13:32;6.28;;;1.90;;
22861;SDS011;11598;50.652;6.172;2023-08-31T19:23:33;8.00;;;2.55;;
22861;SDS011;11598;50.652;6.172;2023-08-31T19:33:33;7.05;;;2.28;;
22861;SDS011;11598;50.652;6.172;2023-08-31T19:43:33;8.00;;;2.53;;
22861;SDS011;11598;50.652;6.172;2023-08-31T19:53:34;10.18;;;2.30;;
22861;SDS011;11598;50.652;6.172;2023-08-31T20:03:34;11.68;;;2.70;;
22861;SDS011;11598;50.652;6.172;2023-08-31T20:13:37;10.60;;;3.23;;
22861;SDS011;11598;50.652;6.172;2023-08-31T20:23:38;8.88;;;3.13;;
22861;SDS011;11598;50.652;6.172;2023-08-31T20:33:38;7.88;;;2.50;;
22861;SDS011;11598;50.652;6.172;2023-08-31T20:43:40;6.28;;;2.53;;
22861;SDS011;11598;50.652;6.172;2023-08-31T20:53:40;7.00;;;2.40;;
22861;SDS011;11598;50.652;6.172;2023-08-31T21:03:41;6.93;;;1.88;;
22861;SDS011;11598;50.652;6.172;2023-08-31T21:13:43;6.03;;;1.73;;
22861;SDS011;11598;50.652;6.172;2023-08-31T21:23:43;3.20;;;1.30;;
22861;SDS011;11598;50.652;6.172;2023-08-31T21:33:44;5.18;;;1.27;;
22861;SDS011;11598;50.652;6.172;2023-08-31T21:43:44;3.70;;;1.45;;
22861;SDS011;11598;50.652;6.172;2023-08-31T21:53:44;3.30;;;1.40;;
22861;SDS011;11598;50.652;6.172;2023-08-31T22:03:45;3.95;;;0.90;;
22861;SDS011;11598;50.652;6.172;2023-08-31T22:13:45;3.08;;;1.05;;
22861;SDS011;11598;50.652;6.172;2023-08-31T22:23:46;2.08;;;0.80;;
22861;SDS011;11598;50.652;6.172;2023-08-31T22:33:46;1.70;;;0.60;;
22861;SDS011;11598;50.652;6.172;2023-08-31T22:43:47;4.65;;;0.80;;
22861;SDS011;11598;50.652;6.172;2023-08-31T22:53:47;1.92;;;0.60;;
22861;SDS011;11598;50.652;6.172;2023-08-31T23:03:47;1.65;;;0.45;;
22861;SDS011;11598;50.652;6.172;2023-08-31T23:13:48;2.72;;;0.50;;
22861;SDS011;11598;50.652;6.172;2023-08-31T23:23:48;3.95;;;0.52;;
22861;SDS011;11598;50.652;6.172;2023-08-31T23:33:49;4.18;;;0.90;;
22861;SDS011;11598;50.652;6.172;2023-08-31T23:43:49;3.70;;;0.30;;
22861;SDS011;11598;50.652;6.172;2023-08-31T23:53:49;1.13;;;0.32;;
